Windsor, Colorado
Current Conditions -  °F | °C
As of 11:55 PM on Sunday 23 Nov 2014 (Local Time) from KFNL Reporting Station
Clear Clear  
Wind Chill: 23°   Ceiling: Unl
Heat Index: 32°   Visibility: 10mi
Dew Point:   Wind: 12mph
Humidity: 32%   Direction: 320°NW
Pressure: 29.87"   Gusts: 17mph
Location:  40.48°N, 104.9°W
Report Text: KFNL 240655Z AUTO 32010G15KT 10SM CLR 00/M15 A2987 RMK AO1
Loading
Personal Weather Stations






























Interactive Weather Map New forecast layout! Learn more

10-Day Weather Forecast

Advertisements
Track Severe Weather on mobile